sensor_id;sensor_type;location;lat;lon;timestamp;P1;durP1;ratioP1;P2;durP2;ratioP2
16029;SDS011;34770;49.272;11.070;2023-02-11T00:00:13;45.30;;;25.73;;
16029;SDS011;34770;49.272;11.070;2023-02-11T00:02:39;43.33;;;24.90;;
16029;SDS011;34770;49.272;11.070;2023-02-11T00:05:04;48.63;;;24.80;;
16029;SDS011;34770;49.272;11.070;2023-02-11T00:07:31;41.80;;;24.27;;
16029;SDS011;34770;49.272;11.070;2023-02-11T00:09:58;52.57;;;26.03;;
16029;SDS011;34770;49.272;11.070;2023-02-11T00:12:23;41.53;;;23.73;;
16029;SDS011;34770;49.272;11.070;2023-02-11T00:14:49;44.53;;;25.20;;
16029;SDS011;34770;49.272;11.070;2023-02-11T00:17:15;45.30;;;23.07;;
16029;SDS011;34770;49.272;11.070;2023-02-11T00:19:41;45.63;;;25.17;;
16029;SDS011;34770;49.272;11.070;2023-02-11T00:22:06;37.77;;;22.57;;
16029;SDS011;34770;49.272;11.070;2023-02-11T00:24:32;43.37;;;23.20;;
16029;SDS011;34770;49.272;11.070;2023-02-11T00:26:57;41.20;;;25.73;;
16029;SDS011;34770;49.272;11.070;2023-02-11T00:29:22;42.47;;;25.40;;
16029;SDS011;34770;49.272;11.070;2023-02-11T00:31:48;47.17;;;25.53;;
16029;SDS011;34770;49.272;11.070;2023-02-11T00:34:13;44.37;;;25.17;;
16029;SDS011;34770;49.272;11.070;2023-02-11T00:36:39;41.70;;;25.47;;
16029;SDS011;34770;49.272;11.070;2023-02-11T00:39:05;49.33;;;27.00;;
16029;SDS011;34770;49.272;11.070;2023-02-11T00:41:31;49.90;;;27.30;;
16029;SDS011;34770;49.272;11.070;2023-02-11T00:43:57;47.53;;;27.03;;
16029;SDS011;34770;49.272;11.070;2023-02-11T00:46:23;52.23;;;26.37;;
16029;SDS011;34770;49.272;11.070;2023-02-11T00:48:49;45.47;;;25.70;;
16029;SDS011;34770;49.272;11.070;2023-02-11T00:51:16;47.87;;;26.43;;
16029;SDS011;34770;49.272;11.070;2023-02-11T00:53:42;47.93;;;26.97;;
16029;SDS011;34770;49.272;11.070;2023-02-11T00:56:07;55.27;;;29.60;;
16029;SDS011;34770;49.272;11.070;2023-02-11T00:58:33;51.00;;;28.13;;
16029;SDS011;34770;49.272;11.070;2023-02-11T01:00:59;47.23;;;27.50;;
16029;SDS011;34770;49.272;11.070;2023-02-11T01:03:25;45.80;;;25.57;;
16029;SDS011;34770;49.272;11.070;2023-02-11T01:05:50;55.97;;;25.93;;
16029;SDS011;34770;49.272;11.070;2023-02-11T01:08:16;49.73;;;26.13;;
16029;SDS011;34770;49.272;11.070;2023-02-11T01:10:42;47.07;;;26.00;;
16029;SDS011;34770;49.272;11.070;2023-02-11T01:13:08;46.57;;;25.37;;
16029;SDS011;34770;49.272;11.070;2023-02-11T01:15:34;52.00;;;26.50;;
16029;SDS011;34770;49.272;11.070;2023-02-11T01:17:59;50.63;;;26.97;;
16029;SDS011;34770;49.272;11.070;2023-02-11T01:20:25;46.30;;;27.10;;
16029;SDS011;34770;49.272;11.070;2023-02-11T01:22:52;47.13;;;27.23;;
16029;SDS011;34770;49.272;11.070;2023-02-11T01:25:17;49.50;;;28.00;;
16029;SDS011;34770;49.272;11.070;2023-02-11T01:27:43;49.83;;;28.17;;
16029;SDS011;34770;49.272;11.070;2023-02-11T01:30:09;50.13;;;25.70;;
16029;SDS011;34770;49.272;11.070;2023-02-11T01:32:37;45.83;;;25.50;;
16029;SDS011;34770;49.272;11.070;2023-02-11T01:35:02;46.17;;;25.30;;
16029;SDS011;34770;49.272;11.070;2023-02-11T01:37:28;45.87;;;24.33;;
16029;SDS011;34770;49.272;11.070;2023-02-11T01:39:53;43.37;;;23.43;;
16029;SDS011;34770;49.272;11.070;2023-02-11T01:42:20;42.53;;;23.87;;
16029;SDS011;34770;49.272;11.070;2023-02-11T01:44:50;42.63;;;24.17;;
16029;SDS011;34770;49.272;11.070;2023-02-11T01:47:17;38.93;;;22.80;;
16029;SDS011;34770;49.272;11.070;2023-02-11T01:49:50;38.77;;;21.57;;
16029;SDS011;34770;49.272;11.070;2023-02-11T01:52:23;42.03;;;23.20;;
16029;SDS011;34770;49.272;11.070;2023-02-11T01:54:53;40.10;;;22.67;;
16029;SDS011;34770;49.272;11.070;2023-02-11T01:57:46;42.97;;;22.63;;
16029;SDS011;34770;49.272;11.070;2023-02-11T02:00:17;41.73;;;24.67;;
16029;SDS011;34770;49.272;11.070;2023-02-11T02:02:53;38.43;;;22.70;;
16029;SDS011;34770;49.272;11.070;2023-02-11T02:08:13;38.33;;;23.30;;
16029;SDS011;34770;49.272;11.070;2023-02-11T02:10:42;41.13;;;23.90;;
16029;SDS011;34770;49.272;11.070;2023-02-11T02:13:10;35.87;;;21.93;;
16029;SDS011;34770;49.272;11.070;2023-02-11T02:15:38;41.43;;;22.57;;
16029;SDS011;34770;49.272;11.070;2023-02-11T02:24:02;37.60;;;20.60;;
16029;SDS011;34770;49.272;11.070;2023-02-11T02:26:45;44.00;;;23.97;;
16029;SDS011;34770;49.272;11.070;2023-02-11T02:35:08;45.83;;;23.50;;
16029;SDS011;34770;49.272;11.070;2023-02-11T02:37:42;42.97;;;23.97;;
16029;SDS011;34770;49.272;11.070;2023-02-11T02:40:21;42.83;;;24.47;;
16029;SDS011;34770;49.272;11.070;2023-02-11T02:42:58;39.73;;;24.27;;
16029;SDS011;34770;49.272;11.070;2023-02-11T02:45:27;45.50;;;24.73;;
16029;SDS011;34770;49.272;11.070;2023-02-11T02:47:52;42.00;;;24.03;;
16029;SDS011;34770;49.272;11.070;2023-02-11T02:50:19;40.37;;;23.77;;
16029;SDS011;34770;49.272;11.070;2023-02-11T02:53:06;43.97;;;23.07;;
16029;SDS011;34770;49.272;11.070;2023-02-11T02:55:44;43.53;;;24.17;;
16029;SDS011;34770;49.272;11.070;2023-02-11T02:58:19;43.80;;;23.17;;
16029;SDS011;34770;49.272;11.070;2023-02-11T03:04:15;44.77;;;23.47;;
16029;SDS011;34770;49.272;11.070;2023-02-11T03:10:22;44.27;;;24.17;;
16029;SDS011;34770;49.272;11.070;2023-02-11T03:12:52;46.23;;;25.33;;
16029;SDS011;34770;49.272;11.070;2023-02-11T03:15:19;42.60;;;25.23;;
16029;SDS011;34770;49.272;11.070;2023-02-11T03:17:47;48.10;;;26.17;;
16029;SDS011;34770;49.272;11.070;2023-02-11T03:20:16;44.37;;;25.07;;
16029;SDS011;34770;49.272;11.070;2023-02-11T03:25:27;42.47;;;24.20;;
16029;SDS011;34770;49.272;11.070;2023-02-11T03:30:37;40.97;;;23.43;;
16029;SDS011;34770;49.272;11.070;2023-02-11T03:33:11;47.67;;;26.57;;
16029;SDS011;34770;49.272;11.070;2023-02-11T03:36:11;41.43;;;24.93;;
16029;SDS011;34770;49.272;11.070;2023-02-11T03:38:48;46.10;;;24.60;;
16029;SDS011;34770;49.272;11.070;2023-02-11T03:41:18;37.67;;;24.50;;
16029;SDS011;34770;49.272;11.070;2023-02-11T03:43:51;44.80;;;24.57;;
16029;SDS011;34770;49.272;11.070;2023-02-11T03:46:22;39.80;;;23.40;;
16029;SDS011;34770;49.272;11.070;2023-02-11T03:48:53;44.87;;;26.63;;
16029;SDS011;34770;49.272;11.070;2023-02-11T03:51:23;47.97;;;24.80;;
16029;SDS011;34770;49.272;11.070;2023-02-11T03:53:51;44.43;;;25.77;;
16029;SDS011;34770;49.272;11.070;2023-02-11T03:56:20;50.10;;;27.83;;
16029;SDS011;34770;49.272;11.070;2023-02-11T03:58:50;45.83;;;25.77;;
16029;SDS011;34770;49.272;11.070;2023-02-11T04:01:15;46.40;;;24.30;;
16029;SDS011;34770;49.272;11.070;2023-02-11T04:03:41;46.67;;;25.87;;
16029;SDS011;34770;49.272;11.070;2023-02-11T04:06:07;44.47;;;24.83;;
16029;SDS011;34770;49.272;11.070;2023-02-11T04:08:32;45.27;;;26.70;;
16029;SDS011;34770;49.272;11.070;2023-02-11T04:10:58;54.57;;;25.77;;
16029;SDS011;34770;49.272;11.070;2023-02-11T04:13:24;49.57;;;25.20;;
16029;SDS011;34770;49.272;11.070;2023-02-11T04:15:49;47.20;;;27.10;;
16029;SDS011;34770;49.272;11.070;2023-02-11T04:18:15;47.03;;;25.63;;
16029;SDS011;34770;49.272;11.070;2023-02-11T04:20:40;44.50;;;25.77;;
16029;SDS011;34770;49.272;11.070;2023-02-11T04:23:06;41.93;;;23.93;;
16029;SDS011;34770;49.272;11.070;2023-02-11T04:25:31;43.60;;;25.00;;
16029;SDS011;34770;49.272;11.070;2023-02-11T04:27:57;41.47;;;24.63;;
16029;SDS011;34770;49.272;11.070;2023-02-11T04:30:22;43.40;;;25.47;;
16029;SDS011;34770;49.272;11.070;2023-02-11T04:32:48;43.50;;;24.67;;
16029;SDS011;34770;49.272;11.070;2023-02-11T04:35:13;43.47;;;25.27;;
16029;SDS011;34770;49.272;11.070;2023-02-11T04:37:39;39.77;;;23.80;;
16029;SDS011;34770;49.272;11.070;2023-02-11T04:40:04;40.30;;;23.50;;
16029;SDS011;34770;49.272;11.070;2023-02-11T04:42:30;42.13;;;25.03;;
16029;SDS011;34770;49.272;11.070;2023-02-11T04:44:56;43.80;;;25.70;;
16029;SDS011;34770;49.272;11.070;2023-02-11T04:47:21;42.87;;;24.00;;
16029;SDS011;34770;49.272;11.070;2023-02-11T04:49:47;43.70;;;23.93;;
16029;SDS011;34770;49.272;11.070;2023-02-11T04:52:15;38.17;;;22.27;;
16029;SDS011;34770;49.272;11.070;2023-02-11T04:54:40;42.77;;;24.13;;
16029;SDS011;34770;49.272;11.070;2023-02-11T04:57:06;52.30;;;23.57;;
16029;SDS011;34770;49.272;11.070;2023-02-11T04:59:31;39.87;;;23.40;;
16029;SDS011;34770;49.272;11.070;2023-02-11T05:01:57;42.83;;;23.67;;
16029;SDS011;34770;49.272;11.070;2023-02-11T05:04:22;41.40;;;22.70;;
16029;SDS011;34770;49.272;11.070;2023-02-11T05:06:48;38.47;;;21.13;;
16029;SDS011;34770;49.272;11.070;2023-02-11T05:09:14;38.13;;;22.97;;
16029;SDS011;34770;49.272;11.070;2023-02-11T05:11:40;34.77;;;22.13;;
16029;SDS011;34770;49.272;11.070;2023-02-11T05:14:06;41.03;;;23.93;;
16029;SDS011;34770;49.272;11.070;2023-02-11T05:16:33;36.93;;;21.07;;
16029;SDS011;34770;49.272;11.070;2023-02-11T05:18:58;39.33;;;22.47;;
16029;SDS011;34770;49.272;11.070;2023-02-11T05:21:24;42.70;;;22.93;;
16029;SDS011;34770;49.272;11.070;2023-02-11T05:23:49;40.17;;;23.57;;
16029;SDS011;34770;49.272;11.070;2023-02-11T05:26:15;35.47;;;22.30;;
16029;SDS011;34770;49.272;11.070;2023-02-11T05:28:41;42.17;;;22.37;;
16029;SDS011;34770;49.272;11.070;2023-02-11T05:31:07;39.53;;;22.33;;
16029;SDS011;34770;49.272;11.070;2023-02-11T05:33:33;39.80;;;21.60;;
16029;SDS011;34770;49.272;11.070;2023-02-11T05:35:59;34.83;;;19.97;;
16029;SDS011;34770;49.272;11.070;2023-02-11T05:38:26;38.20;;;20.83;;
16029;SDS011;34770;49.272;11.070;2023-02-11T05:40:52;38.73;;;20.97;;
16029;SDS011;34770;49.272;11.070;2023-02-11T05:43:17;42.13;;;24.43;;
16029;SDS011;34770;49.272;11.070;2023-02-11T05:45:43;38.80;;;20.90;;
16029;SDS011;34770;49.272;11.070;2023-02-11T05:48:08;46.47;;;25.27;;
16029;SDS011;34770;49.272;11.070;2023-02-11T05:50:34;44.07;;;24.00;;
16029;SDS011;34770;49.272;11.070;2023-02-11T05:52:59;38.43;;;21.33;;
16029;SDS011;34770;49.272;11.070;2023-02-11T05:55:25;31.77;;;20.07;;
16029;SDS011;34770;49.272;11.070;2023-02-11T05:57:50;32.40;;;19.90;;
16029;SDS011;34770;49.272;11.070;2023-02-11T06:00:16;34.00;;;19.20;;
16029;SDS011;34770;49.272;11.070;2023-02-11T06:02:41;35.87;;;21.57;;
16029;SDS011;34770;49.272;11.070;2023-02-11T06:05:07;32.90;;;20.77;;
16029;SDS011;34770;49.272;11.070;2023-02-11T06:07:33;34.20;;;20.33;;
16029;SDS011;34770;49.272;11.070;2023-02-11T06:10:01;33.83;;;19.47;;
16029;SDS011;34770;49.272;11.070;2023-02-11T06:12:26;33.77;;;18.43;;
16029;SDS011;34770;49.272;11.070;2023-02-11T06:14:52;35.37;;;20.37;;
16029;SDS011;34770;49.272;11.070;2023-02-11T06:17:18;29.13;;;18.97;;
16029;SDS011;34770;49.272;11.070;2023-02-11T06:19:43;31.37;;;19.83;;
16029;SDS011;34770;49.272;11.070;2023-02-11T06:22:09;29.60;;;17.63;;
16029;SDS011;34770;49.272;11.070;2023-02-11T06:24:34;28.70;;;16.80;;
16029;SDS011;34770;49.272;11.070;2023-02-11T06:27:01;25.90;;;17.97;;
16029;SDS011;34770;49.272;11.070;2023-02-11T06:29:28;27.93;;;17.40;;
16029;SDS011;34770;49.272;11.070;2023-02-11T06:31:53;24.10;;;16.40;;
16029;SDS011;34770;49.272;11.070;2023-02-11T06:34:19;29.77;;;18.33;;
16029;SDS011;34770;49.272;11.070;2023-02-11T06:36:44;34.73;;;19.37;;
16029;SDS011;34770;49.272;11.070;2023-02-11T06:39:10;34.57;;;19.10;;
16029;SDS011;34770;49.272;11.070;2023-02-11T06:41:37;28.83;;;17.50;;
16029;SDS011;34770;49.272;11.070;2023-02-11T06:44:05;24.57;;;15.33;;
16029;SDS011;34770;49.272;11.070;2023-02-11T06:46:30;21.37;;;13.97;;
16029;SDS011;34770;49.272;11.070;2023-02-11T06:48:56;23.00;;;13.50;;
16029;SDS011;34770;49.272;11.070;2023-02-11T06:51:22;24.27;;;14.17;;
16029;SDS011;34770;49.272;11.070;2023-02-11T06:53:47;22.03;;;14.63;;
16029;SDS011;34770;49.272;11.070;2023-02-11T06:56:14;29.53;;;16.80;;
16029;SDS011;34770;49.272;11.070;2023-02-11T06:58:41;26.60;;;16.53;;
16029;SDS011;34770;49.272;11.070;2023-02-11T07:01:07;26.83;;;16.90;;
16029;SDS011;34770;49.272;11.070;2023-02-11T07:03:35;25.67;;;16.73;;
16029;SDS011;34770;49.272;11.070;2023-02-11T07:06:02;27.03;;;16.77;;
16029;SDS011;34770;49.272;11.070;2023-02-11T07:08:29;27.83;;;17.57;;
16029;SDS011;34770;49.272;11.070;2023-02-11T07:10:55;25.77;;;16.17;;
16029;SDS011;34770;49.272;11.070;2023-02-11T07:13:20;29.20;;;17.03;;
16029;SDS011;34770;49.272;11.070;2023-02-11T07:15:46;36.10;;;20.60;;
16029;SDS011;34770;49.272;11.070;2023-02-11T07:18:11;31.40;;;18.37;;
16029;SDS011;34770;49.272;11.070;2023-02-11T07:20:37;26.87;;;16.80;;
16029;SDS011;34770;49.272;11.070;2023-02-11T07:23:03;27.87;;;17.23;;
16029;SDS011;34770;49.272;11.070;2023-02-11T07:25:29;35.90;;;20.27;;
16029;SDS011;34770;49.272;11.070;2023-02-11T07:27:55;27.87;;;18.13;;
16029;SDS011;34770;49.272;11.070;2023-02-11T07:30:20;28.60;;;18.50;;
16029;SDS011;34770;49.272;11.070;2023-02-11T07:32:46;26.60;;;16.37;;
16029;SDS011;34770;49.272;11.070;2023-02-11T07:35:11;29.40;;;16.90;;
16029;SDS011;34770;49.272;11.070;2023-02-11T07:37:37;28.03;;;17.40;;
16029;SDS011;34770;49.272;11.070;2023-02-11T07:40:02;28.23;;;18.13;;
16029;SDS011;34770;49.272;11.070;2023-02-11T07:42:28;29.07;;;18.07;;
16029;SDS011;34770;49.272;11.070;2023-02-11T07:44:53;29.30;;;18.03;;
16029;SDS011;34770;49.272;11.070;2023-02-11T07:47:19;29.73;;;17.87;;
16029;SDS011;34770;49.272;11.070;2023-02-11T07:49:44;29.53;;;18.03;;
16029;SDS011;34770;49.272;11.070;2023-02-11T07:52:10;28.20;;;17.23;;
16029;SDS011;34770;49.272;11.070;2023-02-11T07:54:35;28.53;;;16.13;;
16029;SDS011;34770;49.272;11.070;2023-02-11T07:57:00;30.00;;;17.50;;
16029;SDS011;34770;49.272;11.070;2023-02-11T07:59:26;27.10;;;17.47;;
16029;SDS011;34770;49.272;11.070;2023-02-11T08:01:51;29.00;;;17.67;;
16029;SDS011;34770;49.272;11.070;2023-02-11T08:04:17;28.90;;;18.60;;
16029;SDS011;34770;49.272;11.070;2023-02-11T08:06:42;24.83;;;14.93;;
16029;SDS011;34770;49.272;11.070;2023-02-11T08:09:10;17.43;;;12.60;;
16029;SDS011;34770;49.272;11.070;2023-02-11T08:11:40;23.17;;;14.77;;
16029;SDS011;34770;49.272;11.070;2023-02-11T08:14:06;29.20;;;16.23;;
16029;SDS011;34770;49.272;11.070;2023-02-11T08:16:33;24.77;;;15.67;;
16029;SDS011;34770;49.272;11.070;2023-02-11T08:19:01;24.77;;;16.10;;
16029;SDS011;34770;49.272;11.070;2023-02-11T08:21:28;23.93;;;16.17;;
16029;SDS011;34770;49.272;11.070;2023-02-11T08:23:54;23.53;;;13.83;;
16029;SDS011;34770;49.272;11.070;2023-02-11T08:26:24;18.40;;;12.63;;
16029;SDS011;34770;49.272;11.070;2023-02-11T08:28:53;20.00;;;13.17;;
16029;SDS011;34770;49.272;11.070;2023-02-11T08:31:21;20.20;;;12.00;;
16029;SDS011;34770;49.272;11.070;2023-02-11T08:33:49;23.67;;;11.93;;
16029;SDS011;34770;49.272;11.070;2023-02-11T08:36:16;20.00;;;11.83;;
16029;SDS011;34770;49.272;11.070;2023-02-11T08:38:43;17.17;;;11.70;;
16029;SDS011;34770;49.272;11.070;2023-02-11T08:41:09;22.67;;;12.90;;
16029;SDS011;34770;49.272;11.070;2023-02-11T08:43:39;20.67;;;11.87;;
16029;SDS011;34770;49.272;11.070;2023-02-11T08:46:08;17.20;;;11.33;;
16029;SDS011;34770;49.272;11.070;2023-02-11T08:48:37;17.80;;;10.77;;
16029;SDS011;34770;49.272;11.070;2023-02-11T08:51:09;18.37;;;12.23;;
16029;SDS011;34770;49.272;11.070;2023-02-11T08:53:39;19.03;;;11.00;;
16029;SDS011;34770;49.272;11.070;2023-02-11T08:56:09;20.73;;;12.67;;
16029;SDS011;34770;49.272;11.070;2023-02-11T08:58:35;17.57;;;10.90;;
16029;SDS011;34770;49.272;11.070;2023-02-11T09:01:01;15.03;;;10.73;;
16029;SDS011;34770;49.272;11.070;2023-02-11T09:03:33;14.30;;;10.00;;
16029;SDS011;34770;49.272;11.070;2023-02-11T09:05:58;20.17;;;13.57;;
16029;SDS011;34770;49.272;11.070;2023-02-11T09:08:24;18.70;;;12.13;;
16029;SDS011;34770;49.272;11.070;2023-02-11T09:10:49;16.63;;;11.07;;
16029;SDS011;34770;49.272;11.070;2023-02-11T09:13:15;18.00;;;12.73;;
16029;SDS011;34770;49.272;11.070;2023-02-11T09:15:43;17.33;;;11.13;;
16029;SDS011;34770;49.272;11.070;2023-02-11T09:18:10;16.33;;;10.60;;
16029;SDS011;34770;49.272;11.070;2023-02-11T09:20:36;20.60;;;12.70;;
16029;SDS011;34770;49.272;11.070;2023-02-11T09:23:01;18.37;;;12.20;;
16029;SDS011;34770;49.272;11.070;2023-02-11T09:25:27;18.67;;;11.63;;
16029;SDS011;34770;49.272;11.070;2023-02-11T09:27:52;20.20;;;13.60;;
16029;SDS011;34770;49.272;11.070;2023-02-11T09:30:18;18.10;;;11.17;;
16029;SDS011;34770;49.272;11.070;2023-02-11T09:32:44;18.80;;;10.67;;
16029;SDS011;34770;49.272;11.070;2023-02-11T09:35:09;13.37;;;10.53;;
16029;SDS011;34770;49.272;11.070;2023-02-11T09:37:35;16.40;;;10.73;;
16029;SDS011;34770;49.272;11.070;2023-02-11T09:40:00;16.70;;;10.93;;
16029;SDS011;34770;49.272;11.070;2023-02-11T09:44:57;20.87;;;12.93;;
16029;SDS011;34770;49.272;11.070;2023-02-11T09:47:32;19.97;;;13.03;;
16029;SDS011;34770;49.272;11.070;2023-02-11T09:50:09;21.30;;;12.77;;
16029;SDS011;34770;49.272;11.070;2023-02-11T09:55:29;16.13;;;10.67;;
16029;SDS011;34770;49.272;11.070;2023-02-11T09:58:00;16.23;;;10.90;;
16029;SDS011;34770;49.272;11.070;2023-02-11T10:03:38;17.00;;;11.23;;
16029;SDS011;34770;49.272;11.070;2023-02-11T10:17:30;18.90;;;10.17;;
16029;SDS011;34770;49.272;11.070;2023-02-11T10:23:21;18.07;;;13.13;;
16029;SDS011;34770;49.272;11.070;2023-02-11T10:25:52;17.07;;;10.80;;
16029;SDS011;34770;49.272;11.070;2023-02-11T10:28:26;14.53;;;9.47;;
16029;SDS011;34770;49.272;11.070;2023-02-11T10:33:52;15.60;;;10.90;;
16029;SDS011;34770;49.272;11.070;2023-02-11T10:36:25;17.07;;;11.37;;
16029;SDS011;34770;49.272;11.070;2023-02-11T10:38:53;19.30;;;11.50;;
16029;SDS011;34770;49.272;11.070;2023-02-11T10:41:20;19.27;;;11.17;;
16029;SDS011;34770;49.272;11.070;2023-02-11T10:43:50;16.30;;;11.13;;
16029;SDS011;34770;49.272;11.070;2023-02-11T10:46:21;20.67;;;11.30;;
16029;SDS011;34770;49.272;11.070;2023-02-11T10:48:51;18.10;;;11.80;;
16029;SDS011;34770;49.272;11.070;2023-02-11T10:53:43;17.90;;;10.43;;
16029;SDS011;34770;49.272;11.070;2023-02-11T10:56:11;15.02;;;10.63;;
16029;SDS011;34770;49.272;11.070;2023-02-11T10:58:55;13.67;;;9.63;;
16029;SDS011;34770;49.272;11.070;2023-02-11T11:01:36;18.63;;;10.97;;
16029;SDS011;34770;49.272;11.070;2023-02-11T11:04:25;13.60;;;9.73;;
16029;SDS011;34770;49.272;11.070;2023-02-11T11:06:54;16.77;;;12.48;;
16029;SDS011;34770;49.272;11.070;2023-02-11T11:09:46;12.93;;;10.07;;
16029;SDS011;34770;49.272;11.070;2023-02-11T11:14:53;17.10;;;11.23;;
16029;SDS011;34770;49.272;11.070;2023-02-11T11:17:19;15.35;;;10.55;;
16029;SDS011;34770;49.272;11.070;2023-02-11T11:19:45;14.50;;;10.30;;
16029;SDS011;34770;49.272;11.070;2023-02-11T11:22:18;15.02;;;10.75;;
16029;SDS011;34770;49.272;11.070;2023-02-11T11:24:49;14.27;;;10.82;;
16029;SDS011;34770;49.272;11.070;2023-02-11T11:27:20;19.83;;;10.40;;
16029;SDS011;34770;49.272;11.070;2023-02-11T11:29:54;15.83;;;10.27;;
16029;SDS011;34770;49.272;11.070;2023-02-11T11:32:30;11.70;;;7.88;;
16029;SDS011;34770;49.272;11.070;2023-02-11T11:35:01;14.83;;;10.13;;
16029;SDS011;34770;49.272;11.070;2023-02-11T11:37:33;13.97;;;9.67;;
16029;SDS011;34770;49.272;11.070;2023-02-11T11:42:37;15.87;;;10.97;;
16029;SDS011;34770;49.272;11.070;2023-02-11T11:47:51;17.67;;;11.02;;
16029;SDS011;34770;49.272;11.070;2023-02-11T11:50:26;12.85;;;8.73;;
16029;SDS011;34770;49.272;11.070;2023-02-11T11:55:47;16.23;;;10.52;;
16029;SDS011;34770;49.272;11.070;2023-02-11T11:58:20;14.85;;;9.73;;
16029;SDS011;34770;49.272;11.070;2023-02-11T12:14:36;20.00;;;10.70;;
16029;SDS011;34770;49.272;11.070;2023-02-11T12:17:10;15.35;;;10.07;;
16029;SDS011;34770;49.272;11.070;2023-02-11T12:19:44;13.93;;;8.90;;
16029;SDS011;34770;49.272;11.070;2023-02-11T12:22:35;15.50;;;10.83;;
16029;SDS011;34770;49.272;11.070;2023-02-11T12:27:49;14.30;;;9.57;;
16029;SDS011;34770;49.272;11.070;2023-02-11T12:30:38;18.88;;;10.68;;
16029;SDS011;34770;49.272;11.070;2023-02-11T12:41:41;15.48;;;10.63;;
16029;SDS011;34770;49.272;11.070;2023-02-11T12:44:51;15.18;;;10.98;;
16029;SDS011;34770;49.272;11.070;2023-02-11T12:50:36;16.02;;;9.93;;
16029;SDS011;34770;49.272;11.070;2023-02-11T12:55:39;18.23;;;10.47;;
16029;SDS011;34770;49.272;11.070;2023-02-11T12:58:14;13.90;;;9.50;;
16029;SDS011;34770;49.272;11.070;2023-02-11T13:00:51;16.73;;;10.03;;
16029;SDS011;34770;49.272;11.070;2023-02-11T13:03:30;15.30;;;9.40;;
16029;SDS011;34770;49.272;11.070;2023-02-11T13:06:18;14.90;;;9.10;;
16029;SDS011;34770;49.272;11.070;2023-02-11T13:08:50;16.63;;;10.87;;
16029;SDS011;34770;49.272;11.070;2023-02-11T13:11:23;15.10;;;8.97;;
16029;SDS011;34770;49.272;11.070;2023-02-11T13:13:55;14.27;;;9.73;;
16029;SDS011;34770;49.272;11.070;2023-02-11T13:16:44;14.45;;;9.82;;
16029;SDS011;34770;49.272;11.070;2023-02-11T13:24:18;13.73;;;9.33;;
16029;SDS011;34770;49.272;11.070;2023-02-11T13:37:51;19.17;;;9.00;;
16029;SDS011;34770;49.272;11.070;2023-02-11T13:42:50;16.05;;;9.30;;
16029;SDS011;34770;49.272;11.070;2023-02-11T13:47:49;17.93;;;11.07;;
16029;SDS011;34770;49.272;11.070;2023-02-11T13:50:22;12.15;;;9.73;;
16029;SDS011;34770;49.272;11.070;2023-02-11T13:52:55;16.02;;;9.50;;
16029;SDS011;34770;49.272;11.070;2023-02-11T13:55:23;14.68;;;9.73;;
16029;SDS011;34770;49.272;11.070;2023-02-11T14:14:26;13.30;;;10.32;;
16029;SDS011;34770;49.272;11.070;2023-02-11T14:19:32;17.58;;;11.25;;
16029;SDS011;34770;49.272;11.070;2023-02-11T14:24:40;17.08;;;11.75;;
16029;SDS011;34770;49.272;11.070;2023-02-11T14:27:17;17.70;;;10.60;;
16029;SDS011;34770;49.272;11.070;2023-02-11T14:29:50;19.88;;;12.20;;
16029;SDS011;34770;49.272;11.070;2023-02-11T14:32:33;14.32;;;9.60;;
16029;SDS011;34770;49.272;11.070;2023-02-11T14:38:06;20.48;;;11.50;;
16029;SDS011;34770;49.272;11.070;2023-02-11T14:40:42;17.05;;;10.93;;
16029;SDS011;34770;49.272;11.070;2023-02-11T14:43:43;16.95;;;10.18;;
16029;SDS011;34770;49.272;11.070;2023-02-11T14:46:13;20.02;;;11.65;;
16029;SDS011;34770;49.272;11.070;2023-02-11T14:48:43;18.50;;;12.18;;
16029;SDS011;34770;49.272;11.070;2023-02-11T14:54:06;18.35;;;12.00;;
16029;SDS011;34770;49.272;11.070;2023-02-11T14:56:37;16.05;;;10.93;;
16029;SDS011;34770;49.272;11.070;2023-02-11T14:59:12;21.77;;;12.23;;
16029;SDS011;34770;49.272;11.070;2023-02-11T15:01:41;21.17;;;12.40;;
16029;SDS011;34770;49.272;11.070;2023-02-11T15:04:22;14.70;;;10.48;;
16029;SDS011;34770;49.272;11.070;2023-02-11T15:06:50;16.77;;;11.95;;
16029;SDS011;34770;49.272;11.070;2023-02-11T15:11:43;20.75;;;12.02;;
16029;SDS011;34770;49.272;11.070;2023-02-11T15:14:22;17.75;;;12.73;;
16029;SDS011;34770;49.272;11.070;2023-02-11T15:16:48;19.92;;;12.18;;
16029;SDS011;34770;49.272;11.070;2023-02-11T15:21:45;18.83;;;12.13;;
16029;SDS011;34770;49.272;11.070;2023-02-11T15:24:22;21.58;;;11.93;;
16029;SDS011;34770;49.272;11.070;2023-02-11T15:26:57;18.35;;;11.90;;
16029;SDS011;34770;49.272;11.070;2023-02-11T15:29:25;18.60;;;12.27;;
16029;SDS011;34770;49.272;11.070;2023-02-11T15:32:09;19.37;;;13.53;;
16029;SDS011;34770;49.272;11.070;2023-02-11T15:34:37;16.37;;;11.07;;
16029;SDS011;34770;49.272;11.070;2023-02-11T15:37:03;17.63;;;12.40;;
16029;SDS011;34770;49.272;11.070;2023-02-11T15:39:30;16.40;;;11.17;;
16029;SDS011;34770;49.272;11.070;2023-02-11T15:42:15;17.20;;;12.13;;
16029;SDS011;34770;49.272;11.070;2023-02-11T15:44:41;17.63;;;11.40;;
16029;SDS011;34770;49.272;11.070;2023-02-11T15:47:10;19.13;;;11.53;;
16029;SDS011;34770;49.272;11.070;2023-02-11T15:49:37;20.37;;;11.07;;
16029;SDS011;34770;49.272;11.070;2023-02-11T15:52:08;18.17;;;11.53;;
16029;SDS011;34770;49.272;11.070;2023-02-11T15:54:34;17.20;;;11.63;;
16029;SDS011;34770;49.272;11.070;2023-02-11T15:57:01;20.65;;;11.98;;
16029;SDS011;34770;49.272;11.070;2023-02-11T15:59:33;18.15;;;12.98;;
16029;SDS011;34770;49.272;11.070;2023-02-11T16:04:56;17.45;;;12.18;;
16029;SDS011;34770;49.272;11.070;2023-02-11T16:07:39;17.77;;;12.32;;
16029;SDS011;34770;49.272;11.070;2023-02-11T16:10:31;17.77;;;11.10;;
16029;SDS011;34770;49.272;11.070;2023-02-11T16:17:59;14.77;;;9.77;;
16029;SDS011;34770;49.272;11.070;2023-02-11T16:20:27;18.98;;;12.80;;
16029;SDS011;34770;49.272;11.070;2023-02-11T16:22:52;23.63;;;12.77;;
16029;SDS011;34770;49.272;11.070;2023-02-11T16:25:19;17.90;;;10.67;;
16029;SDS011;34770;49.272;11.070;2023-02-11T16:27:52;20.43;;;12.53;;
16029;SDS011;34770;49.272;11.070;2023-02-11T16:30:30;24.67;;;14.57;;
16029;SDS011;34770;49.272;11.070;2023-02-11T16:32:58;18.23;;;12.43;;
16029;SDS011;34770;49.272;11.070;2023-02-11T16:35:23;19.27;;;12.70;;
16029;SDS011;34770;49.272;11.070;2023-02-11T16:37:48;17.40;;;11.90;;
16029;SDS011;34770;49.272;11.070;2023-02-11T16:40:14;17.73;;;11.40;;
16029;SDS011;34770;49.272;11.070;2023-02-11T16:42:40;17.47;;;13.10;;
16029;SDS011;34770;49.272;11.070;2023-02-11T16:45:05;14.43;;;10.63;;
16029;SDS011;34770;49.272;11.070;2023-02-11T16:47:31;19.87;;;11.27;;
16029;SDS011;34770;49.272;11.070;2023-02-11T16:49:58;14.47;;;11.13;;
16029;SDS011;34770;49.272;11.070;2023-02-11T16:52:25;16.53;;;9.20;;
16029;SDS011;34770;49.272;11.070;2023-02-11T16:54:50;17.63;;;9.00;;
16029;SDS011;34770;49.272;11.070;2023-02-11T16:57:17;12.70;;;9.13;;
16029;SDS011;34770;49.272;11.070;2023-02-11T16:59:50;14.57;;;10.00;;